createdAt,value
2022-09-17T00:00:47.614Z,15.40
2022-09-17T00:02:24.441Z,15.24
2022-09-17T00:03:55.974Z,17.59
2022-09-17T00:05:27.759Z,17.92
2022-09-17T00:07:00.790Z,18.55
2022-09-17T00:08:32.206Z,15.05
2022-09-17T00:10:03.905Z,18.01
2022-09-17T00:11:36.080Z,18.02
2022-09-17T00:13:07.420Z,15.97
2022-09-17T00:14:38.884Z,20.62
2022-09-17T00:16:10.782Z,20.35
2022-09-17T00:17:42.149Z,19.35
2022-09-17T00:19:13.725Z,17.19
2022-09-17T00:20:45.284Z,21.06
2022-09-17T00:22:16.618Z,18.14
2022-09-17T00:23:48.100Z,20.45
2022-09-17T00:25:25.231Z,18.29
2022-09-17T00:26:56.860Z,18.91
2022-09-17T00:28:28.433Z,22.39
2022-09-17T00:30:00.786Z,20.92
2022-09-17T00:31:32.724Z,24.41
2022-09-17T00:33:03.983Z,23.63
2022-09-17T00:34:35.339Z,23.33
2022-09-17T00:36:06.755Z,27.31
2022-09-17T00:37:38.661Z,21.26
2022-09-17T00:39:10.500Z,24.60
2022-09-17T00:40:42.036Z,25.89
2022-09-17T00:42:13.496Z,21.03
2022-09-17T00:43:44.952Z,20.49
2022-09-17T00:45:17.018Z,22.66
2022-09-17T00:46:48.619Z,22.79
2022-09-17T00:48:20.414Z,20.45
2022-09-17T00:49:51.785Z,19.79
2022-09-17T00:51:23.279Z,20.44
2022-09-17T00:52:54.584Z,22.23
2022-09-17T00:54:26.263Z,24.58
2022-09-17T00:55:58.153Z,23.80
2022-09-17T00:57:30.067Z,22.87
2022-09-17T00:59:01.662Z,20.31
2022-09-17T01:00:33.428Z,19.84
2022-09-17T01:02:05.235Z,17.90
2022-09-17T01:03:36.659Z,18.23
2022-09-17T01:05:08.196Z,18.87
2022-09-17T01:06:39.796Z,16.98
2022-09-17T01:08:11.420Z,19.96
2022-09-17T01:09:43.176Z,21.20
2022-09-17T01:11:14.575Z,18.81
2022-09-17T01:12:46.849Z,17.39
2022-09-17T01:14:18.421Z,20.92
2022-09-17T01:15:49.788Z,18.19
2022-09-17T01:17:21.610Z,21.65
2022-09-17T01:18:53.696Z,16.59
2022-09-17T01:20:25.581Z,12.87
2022-09-17T01:21:56.898Z,19.46
2022-09-17T01:23:28.236Z,18.45
2022-09-17T01:24:59.900Z,17.29
2022-09-17T01:26:31.463Z,15.33
2022-09-17T01:28:02.644Z,15.53
2022-09-17T01:29:33.933Z,18.10
2022-09-17T01:31:05.266Z,18.19
2022-09-17T01:32:36.767Z,19.96
2022-09-17T01:34:08.009Z,18.95
2022-09-17T01:35:39.553Z,22.09
2022-09-17T01:37:11.038Z,18.55
2022-09-17T01:38:42.408Z,20.82
2022-09-17T01:40:14.033Z,19.54
2022-09-17T01:41:45.687Z,18.48
2022-09-17T01:43:17.015Z,19.57
2022-09-17T01:44:48.408Z,19.30
2022-09-17T01:46:19.956Z,18.91
2022-09-17T01:47:51.277Z,18.92
2022-09-17T01:49:22.891Z,19.19
2022-09-17T01:50:54.477Z,17.49
2022-09-17T01:52:26.048Z,21.78
2022-09-17T01:53:57.562Z,21.27
2022-09-17T01:55:33.948Z,20.44
2022-09-17T01:57:05.507Z,22.70
2022-09-17T01:58:36.737Z,22.39
2022-09-17T02:00:08.299Z,22.07
2022-09-17T02:01:40.157Z,23.10
2022-09-17T02:03:11.618Z,21.57
2022-09-17T02:04:42.928Z,19.64
2022-09-17T02:06:14.177Z,22.69
2022-09-17T02:07:45.580Z,25.63
2022-09-17T02:09:16.858Z,22.40
2022-09-17T02:10:48.130Z,27.66
2022-09-17T02:12:19.376Z,28.87
2022-09-17T02:13:50.709Z,24.36
2022-09-17T02:15:22.116Z,24.66
2022-09-17T02:16:53.496Z,26.16
2022-09-17T02:18:24.771Z,24.82
2022-09-17T02:19:56.226Z,24.56
2022-09-17T02:21:27.651Z,25.37
2022-09-17T02:22:59.095Z,25.83
2022-09-17T02:24:30.307Z,25.40
2022-09-17T02:26:02.666Z,26.20
2022-09-17T02:27:34.095Z,25.36
2022-09-17T02:29:10.546Z,28.08
2022-09-17T02:30:41.795Z,30.32
2022-09-17T02:32:12.987Z,23.77
2022-09-17T02:33:44.336Z,25.23
2022-09-17T02:35:15.634Z,28.10
2022-09-17T02:36:57.102Z,24.88
2022-09-17T02:38:28.496Z,22.72
2022-09-17T02:39:59.990Z,24.16
2022-09-17T02:41:31.275Z,22.49
2022-09-17T02:43:02.850Z,25.31
2022-09-17T02:44:34.043Z,21.92
2022-09-17T02:46:05.482Z,29.04
2022-09-17T02:47:37.013Z,25.64
2022-09-17T02:49:08.369Z,25.79
2022-09-17T02:50:40.497Z,27.39
2022-09-17T02:52:12.535Z,27.91
2022-09-17T02:53:44.168Z,28.70
2022-09-17T02:55:20.553Z,28.50
2022-09-17T02:56:51.896Z,25.52
2022-09-17T02:58:23.663Z,28.05
2022-09-17T02:59:55.268Z,25.86
2022-09-17T03:01:26.822Z,27.75
2022-09-17T03:02:58.327Z,25.98
2022-09-17T03:04:29.690Z,27.70
2022-09-17T03:06:01.242Z,26.69
2022-09-17T03:07:48.027Z,31.33
2022-09-17T03:09:19.419Z,31.05
2022-09-17T03:10:50.903Z,28.42
2022-09-17T03:12:22.497Z,28.50
2022-09-17T03:13:59.098Z,29.01
2022-09-17T03:15:31.016Z,29.63
2022-09-17T03:17:07.388Z,30.29
2022-09-17T03:18:38.807Z,27.99
2022-09-17T03:20:15.110Z,27.91
2022-09-17T03:21:46.567Z,30.52
2022-09-17T03:23:17.879Z,30.98
2022-09-17T03:24:49.167Z,28.67
2022-09-17T03:26:20.536Z,26.61
2022-09-17T03:27:51.807Z,29.38
2022-09-17T03:29:23.241Z,27.56
2022-09-17T03:30:54.661Z,28.19
2022-09-17T03:32:26.135Z,30.93
2022-09-17T03:33:57.387Z,31.86
2022-09-17T03:35:28.584Z,27.77
2022-09-17T03:37:00.109Z,28.58
2022-09-17T03:38:36.700Z,25.40
2022-09-17T03:40:08.154Z,25.46
2022-09-17T03:41:39.804Z,30.03
2022-09-17T03:43:11.168Z,31.58
2022-09-17T03:44:45.309Z,26.11
2022-09-17T03:46:17.197Z,27.05
2022-09-17T03:47:48.728Z,27.06
2022-09-17T03:49:20.024Z,28.08
2022-09-17T03:50:51.696Z,25.78
2022-09-17T03:52:23.125Z,24.61
2022-09-17T03:53:54.599Z,25.28
2022-09-17T03:55:26.502Z,26.21
2022-09-17T03:56:58.151Z,30.00
2022-09-17T03:58:29.882Z,25.21
2022-09-17T04:00:01.482Z,28.06
2022-09-17T04:01:32.896Z,29.36
2022-09-17T04:03:10.060Z,19.23
2022-09-17T04:04:51.398Z,23.47
2022-09-17T04:06:23.680Z,24.51
2022-09-17T04:07:56.311Z,27.00
2022-09-17T04:09:33.463Z,27.75
2022-09-17T04:11:06.777Z,26.24
2022-09-17T04:12:38.087Z,22.90
2022-09-17T04:14:09.469Z,29.40
2022-09-17T04:15:41.128Z,31.27
2022-09-17T04:17:14.404Z,27.21
2022-09-17T04:18:45.671Z,20.82
2022-09-17T04:20:17.003Z,23.96
2022-09-17T04:21:48.594Z,27.07
2022-09-17T04:23:19.885Z,30.13
2022-09-17T04:24:51.840Z,27.55
2022-09-17T04:26:23.424Z,27.68
2022-09-17T04:27:54.893Z,23.50
2022-09-17T04:29:26.372Z,29.99
2022-09-17T04:30:58.271Z,24.45
2022-09-17T04:32:29.603Z,26.13
2022-09-17T04:34:01.016Z,21.59
2022-09-17T04:35:32.486Z,22.67
2022-09-17T04:37:04.037Z,24.17
2022-09-17T04:38:35.709Z,25.02
2022-09-17T04:40:08.098Z,29.56
2022-09-17T04:41:39.804Z,27.28
2022-09-17T04:43:31.627Z,27.43
2022-09-17T04:45:03.014Z,25.62
2022-09-17T04:46:34.494Z,23.41
2022-09-17T04:48:06.057Z,22.30
2022-09-17T04:49:37.714Z,23.01
2022-09-17T04:51:13.847Z,25.67
2022-09-17T04:52:45.271Z,19.98
2022-09-17T04:54:17.040Z,21.62
2022-09-17T04:55:48.324Z,21.92
2022-09-17T04:57:19.804Z,23.27
2022-09-17T04:58:51.275Z,23.47
2022-09-17T05:00:22.598Z,24.67
2022-09-17T05:01:53.956Z,24.77
2022-09-17T05:03:25.551Z,21.19
2022-09-17T05:04:57.029Z,16.91
2022-09-17T05:06:28.367Z,20.94
2022-09-17T05:07:59.917Z,19.77
2022-09-17T05:09:31.350Z,19.77
2022-09-17T05:11:02.903Z,18.44
2022-09-17T05:12:34.655Z,22.79
2022-09-17T05:14:06.231Z,20.63
2022-09-17T05:15:37.744Z,18.77
2022-09-17T05:17:09.837Z,18.92
2022-09-17T05:18:41.385Z,19.85
2022-09-17T05:20:13.569Z,17.63
2022-09-17T05:21:45.418Z,18.07
2022-09-17T05:23:17.298Z,17.70
2022-09-17T05:24:48.679Z,19.40
2022-09-17T05:26:20.469Z,19.38
2022-09-17T05:27:52.250Z,18.10
2022-09-17T05:29:23.793Z,16.82
2022-09-17T05:30:55.645Z,17.86
2022-09-17T05:32:27.347Z,17.23
2022-09-17T05:33:58.716Z,17.35
2022-09-17T05:35:30.124Z,19.62
2022-09-17T05:37:01.776Z,16.10
2022-09-17T05:38:33.302Z,15.69
2022-09-17T05:40:04.525Z,19.91
2022-09-17T05:41:36.064Z,20.14
2022-09-17T05:43:07.743Z,15.00
2022-09-17T05:44:39.378Z,15.50
2022-09-17T05:46:11.107Z,13.62
2022-09-17T05:47:42.451Z,15.46
2022-09-17T05:49:13.914Z,15.72
2022-09-17T05:50:45.470Z,15.83
2022-09-17T05:52:16.786Z,14.29
2022-09-17T05:53:48.604Z,15.52
2022-09-17T05:55:20.670Z,15.62
2022-09-17T05:56:52.383Z,16.23
2022-09-17T05:58:23.711Z,14.07
2022-09-17T05:59:55.368Z,12.74
2022-09-17T06:01:31.819Z,18.78
2022-09-17T06:03:03.361Z,16.45
2022-09-17T06:04:35.159Z,15.70
2022-09-17T06:06:06.993Z,15.43
2022-09-17T06:07:38.525Z,13.54
2022-09-17T06:09:10.029Z,11.07
2022-09-17T06:10:41.465Z,13.96
2022-09-17T06:12:12.815Z,13.84
2022-09-17T06:13:44.057Z,14.59
2022-09-17T06:15:15.536Z,13.21
2022-09-17T06:16:47.073Z,14.87
2022-09-17T06:18:18.521Z,14.07
2022-09-17T06:19:50.244Z,13.07
2022-09-17T06:21:21.915Z,14.32
2022-09-17T06:22:53.359Z,12.86
2022-09-17T06:24:25.225Z,12.47
2022-09-17T06:25:56.729Z,13.33
2022-09-17T06:27:28.132Z,14.35
2022-09-17T06:28:59.488Z,16.61
2022-09-17T06:30:30.829Z,13.89
2022-09-17T06:32:02.210Z,14.12
2022-09-17T06:33:33.654Z,15.57
2022-09-17T06:35:05.002Z,15.44
2022-09-17T06:36:36.346Z,13.11
2022-09-17T06:38:07.710Z,14.07
2022-09-17T06:39:39.601Z,12.75
2022-09-17T06:41:11.212Z,10.07
2022-09-17T06:42:42.599Z,13.07
2022-09-17T06:44:14.007Z,12.25
2022-09-17T06:45:45.809Z,12.33
2022-09-17T06:47:17.417Z,16.47
2022-09-17T06:48:49.115Z,12.53
2022-09-17T06:50:20.500Z,12.21
2022-09-17T06:51:52.053Z,13.90
2022-09-17T06:53:23.889Z,12.78
2022-09-17T06:54:55.370Z,14.81
2022-09-17T06:56:26.698Z,13.82
2022-09-17T06:57:58.393Z,13.93
2022-09-17T06:59:30.005Z,13.75
2022-09-17T07:01:01.540Z,12.65
2022-09-17T07:02:32.942Z,13.30
2022-09-17T07:04:04.236Z,11.60
2022-09-17T07:05:35.815Z,12.38
2022-09-17T07:07:07.313Z,13.72
2022-09-17T07:08:38.826Z,14.76
2022-09-17T07:10:10.294Z,13.74
2022-09-17T07:11:42.507Z,10.46
2022-09-17T07:13:13.885Z,12.81
2022-09-17T07:14:45.324Z,12.62
2022-09-17T07:16:17.316Z,12.94
2022-09-17T07:17:49.041Z,14.40
2022-09-17T07:19:20.365Z,13.27
2022-09-17T07:20:51.928Z,12.94
2022-09-17T07:22:23.646Z,10.03
2022-09-17T07:23:54.989Z,14.49
2022-09-17T07:25:26.788Z,13.71
2022-09-17T07:26:58.314Z,11.54
2022-09-17T07:28:29.737Z,14.54
2022-09-17T07:30:01.041Z,11.17
2022-09-17T07:31:32.484Z,13.73
2022-09-17T07:33:03.938Z,12.77
2022-09-17T07:34:35.394Z,11.69
2022-09-17T07:36:06.855Z,11.39
2022-09-17T07:37:38.137Z,11.10
2022-09-17T07:39:10.183Z,10.42
2022-09-17T07:40:42.022Z,12.02
2022-09-17T07:42:13.655Z,16.62
2022-09-17T07:43:45.587Z,10.36
2022-09-17T07:45:17.088Z,10.66
2022-09-17T07:46:48.667Z,9.89
2022-09-17T07:48:20.597Z,9.93
2022-09-17T07:49:51.834Z,11.01
2022-09-17T07:51:23.340Z,10.12
2022-09-17T07:52:54.680Z,11.83
2022-09-17T07:54:26.063Z,11.50
2022-09-17T07:55:57.573Z,11.80
2022-09-17T07:57:29.257Z,13.33
2022-09-17T07:59:00.914Z,13.12
2022-09-17T08:00:33.085Z,10.27
2022-09-17T08:02:04.745Z,12.30
2022-09-17T08:03:36.208Z,13.87
2022-09-17T08:05:07.926Z,11.21
2022-09-17T08:06:39.532Z,11.09
2022-09-17T08:08:11.022Z,15.98
2022-09-17T08:09:42.668Z,14.64
2022-09-17T08:11:14.094Z,13.92
2022-09-17T08:12:45.721Z,12.30
2022-09-17T08:14:17.340Z,13.18
2022-09-17T08:15:48.831Z,12.20
2022-09-17T08:17:20.266Z,11.36
2022-09-17T08:18:51.697Z,11.11
2022-09-17T08:20:23.233Z,13.43
2022-09-17T08:21:54.754Z,13.64
2022-09-17T08:23:26.166Z,14.93
2022-09-17T08:24:57.910Z,12.73
2022-09-17T08:26:29.589Z,10.72
2022-09-17T08:28:00.977Z,12.29
2022-09-17T08:29:35.204Z,13.74
2022-09-17T08:31:07.334Z,13.24
2022-09-17T08:32:44.160Z,14.27
2022-09-17T08:34:15.557Z,11.92
2022-09-17T08:35:46.982Z,9.79
2022-09-17T08:37:18.952Z,9.89
2022-09-17T08:38:50.262Z,9.88
2022-09-17T08:40:21.956Z,11.82
2022-09-17T08:41:54.021Z,13.42
2022-09-17T08:43:25.678Z,9.55
2022-09-17T08:45:00.495Z,10.73
2022-09-17T08:46:32.660Z,11.80
2022-09-17T08:48:04.219Z,10.87
2022-09-17T08:49:40.702Z,8.78
2022-09-17T08:51:12.156Z,8.02
2022-09-17T08:52:43.695Z,10.61
2022-09-17T08:54:15.090Z,7.75
2022-09-17T08:55:46.608Z,8.23
2022-09-17T08:57:18.208Z,8.16
2022-09-17T08:58:55.098Z,8.14
2022-09-17T09:00:26.371Z,9.32
2022-09-17T09:01:57.819Z,8.70
2022-09-17T09:03:29.422Z,7.75
2022-09-17T09:05:01.156Z,7.37
2022-09-17T09:06:32.402Z,7.38
2022-09-17T09:08:03.893Z,11.48
2022-09-17T09:09:35.309Z,7.25
2022-09-17T09:11:06.898Z,6.71
2022-09-17T09:12:38.178Z,9.91
2022-09-17T09:14:09.580Z,8.11
2022-09-17T09:15:40.945Z,9.57
2022-09-17T09:17:12.640Z,6.54
2022-09-17T09:18:44.018Z,6.67
2022-09-17T09:20:16.043Z,7.49
2022-09-17T09:21:47.528Z,9.72
2022-09-17T09:23:19.356Z,10.63
2022-09-17T09:24:50.773Z,7.36
2022-09-17T09:26:22.119Z,6.65
2022-09-17T09:27:53.572Z,7.39
2022-09-17T09:29:30.212Z,6.82
2022-09-17T09:31:01.552Z,6.72
2022-09-17T09:32:33.006Z,8.82
2022-09-17T09:34:04.538Z,9.51
2022-09-17T09:35:36.138Z,9.72
2022-09-17T09:37:07.839Z,8.94
2022-09-17T09:38:39.118Z,8.33
2022-09-17T09:40:10.574Z,9.50
2022-09-17T09:41:42.348Z,8.31
2022-09-17T09:43:13.543Z,7.10
2022-09-17T09:44:44.829Z,6.70
2022-09-17T09:46:16.391Z,7.33
2022-09-17T09:47:48.019Z,6.96
2022-09-17T09:49:19.742Z,6.27
2022-09-17T09:51:06.317Z,7.54
2022-09-17T09:52:38.487Z,6.24
2022-09-17T09:54:09.845Z,7.82
2022-09-17T09:55:41.193Z,5.81
2022-09-17T09:57:17.860Z,7.03
2022-09-17T09:58:49.275Z,6.55
2022-09-17T10:00:20.640Z,7.78
2022-09-17T10:01:52.137Z,5.61
2022-09-17T10:03:23.759Z,6.72
2022-09-17T10:04:55.415Z,5.08
2022-09-17T10:06:26.980Z,6.02
2022-09-17T10:07:58.353Z,4.86
2022-09-17T10:09:34.746Z,6.27
2022-09-17T10:11:06.073Z,5.55
2022-09-17T10:12:37.442Z,4.62
2022-09-17T10:14:09.992Z,5.70
2022-09-17T10:15:41.334Z,6.08
2022-09-17T10:17:12.642Z,5.78
2022-09-17T10:18:44.015Z,7.95
2022-09-17T10:20:18.307Z,5.48
2022-09-17T10:21:53.660Z,6.41
2022-09-17T10:23:24.968Z,5.77
2022-09-17T10:24:56.614Z,6.04
2022-09-17T10:26:27.983Z,4.75
2022-09-17T10:27:59.416Z,5.50
2022-09-17T10:29:31.147Z,5.39
2022-09-17T10:31:07.882Z,5.98
2022-09-17T10:32:40.388Z,4.51
2022-09-17T10:34:11.808Z,4.86
2022-09-17T10:35:43.106Z,4.79
2022-09-17T10:37:14.635Z,5.15
2022-09-17T10:38:47.153Z,4.27
2022-09-17T10:40:18.797Z,4.50
2022-09-17T10:41:50.468Z,4.55
2022-09-17T10:43:22.137Z,4.58
2022-09-17T10:44:53.514Z,4.04
2022-09-17T10:46:27.566Z,4.49
2022-09-17T10:47:59.437Z,4.59
2022-09-17T10:49:30.988Z,5.65
2022-09-17T10:51:02.740Z,5.33
2022-09-17T10:52:34.075Z,4.33
2022-09-17T10:54:05.585Z,3.50
2022-09-17T10:55:37.043Z,4.22
2022-09-17T10:57:08.489Z,4.14
2022-09-17T10:58:42.386Z,3.72
2022-09-17T11:00:13.903Z,5.02
2022-09-17T11:01:45.358Z,4.95
2022-09-17T11:03:16.849Z,4.15
2022-09-17T11:04:48.245Z,3.84
2022-09-17T11:06:19.699Z,2.89
2022-09-17T11:07:51.113Z,3.94
2022-09-17T11:09:22.508Z,5.11
2022-09-17T11:10:54.141Z,3.17
2022-09-17T11:12:25.916Z,4.20
2022-09-17T11:13:57.485Z,4.01
2022-09-17T11:15:29.120Z,2.68
2022-09-17T11:17:00.670Z,2.98
2022-09-17T11:18:32.038Z,2.63
2022-09-17T11:20:04.095Z,3.25
2022-09-17T11:21:35.503Z,3.55
2022-09-17T11:23:07.127Z,2.30
2022-09-17T11:24:38.600Z,2.47
2022-09-17T11:26:09.899Z,2.95
2022-09-17T11:27:41.241Z,3.51
2022-09-17T11:29:13.139Z,2.41
2022-09-17T11:30:44.567Z,3.90
2022-09-17T11:32:16.017Z,3.52
2022-09-17T11:33:47.654Z,2.32
2022-09-17T11:35:19.235Z,3.95
2022-09-17T11:36:50.656Z,3.97
2022-09-17T11:38:22.048Z,3.23
2022-09-17T11:39:53.481Z,3.22
2022-09-17T11:41:24.883Z,2.01
2022-09-17T11:42:56.386Z,2.46
2022-09-17T11:44:27.879Z,1.75
2022-09-17T11:45:59.445Z,3.97
2022-09-17T11:47:30.963Z,2.73
2022-09-17T11:49:03.412Z,2.70
2022-09-17T11:50:35.115Z,2.81
2022-09-17T11:52:06.642Z,1.48
2022-09-17T11:53:38.066Z,2.52
2022-09-17T11:55:09.802Z,2.53
2022-09-17T11:56:41.452Z,1.78
2022-09-17T11:58:13.851Z,2.13
2022-09-17T11:59:45.329Z,2.18
2022-09-17T12:01:16.749Z,2.56
2022-09-17T12:02:48.299Z,2.15
2022-09-17T12:04:19.932Z,2.43
2022-09-17T12:05:51.565Z,2.00
2022-09-17T12:07:23.514Z,1.86
2022-09-17T12:08:54.981Z,3.68
2022-09-17T12:10:26.392Z,3.33
2022-09-17T12:11:57.778Z,1.92
2022-09-17T12:13:29.502Z,4.09
2022-09-17T12:15:01.235Z,2.01
2022-09-17T12:16:32.995Z,2.67
2022-09-17T12:18:30.635Z,4.64
2022-09-17T12:20:05.008Z,2.86
2022-09-17T12:21:36.553Z,3.00
2022-09-17T12:23:08.237Z,3.95
2022-09-17T12:24:39.621Z,3.68
2022-09-17T12:26:11.046Z,2.43
2022-09-17T12:27:47.393Z,3.78
2022-09-17T12:29:18.757Z,4.46
2022-09-17T12:30:50.197Z,4.36
2022-09-17T12:32:21.636Z,2.97
2022-09-17T12:33:53.110Z,4.88
2022-09-17T12:35:41.029Z,5.20
2022-09-17T12:37:31.433Z,4.89
2022-09-17T12:39:03.265Z,4.69
2022-09-17T12:40:35.121Z,4.65
2022-09-17T12:42:06.500Z,5.12
2022-09-17T12:43:38.160Z,3.27
2022-09-17T12:45:09.757Z,3.51
2022-09-17T12:46:41.394Z,3.39
2022-09-17T12:48:12.831Z,3.47
2022-09-17T12:49:44.274Z,3.85
2022-09-17T12:51:15.717Z,3.38
2022-09-17T12:52:47.109Z,4.73
2022-09-17T12:54:28.484Z,4.49
2022-09-17T12:55:59.892Z,4.52
2022-09-17T12:57:31.236Z,4.43
2022-09-17T12:59:02.468Z,6.20
2022-09-17T13:00:38.999Z,3.19
2022-09-17T13:02:10.705Z,2.54
2022-09-17T13:03:42.145Z,4.90
2022-09-17T13:05:13.544Z,3.34
2022-09-17T13:06:45.009Z,7.11
2022-09-17T13:08:16.596Z,3.88
2022-09-17T13:09:48.177Z,3.97
2022-09-17T13:11:20.058Z,5.04
2022-09-17T13:12:51.744Z,5.13
2022-09-17T13:14:23.290Z,3.89
2022-09-17T13:15:54.996Z,3.74
2022-09-17T13:17:26.428Z,3.50
2022-09-17T13:19:14.984Z,4.19
2022-09-17T13:20:47.683Z,5.84
2022-09-17T13:22:19.129Z,6.01
2022-09-17T13:23:50.866Z,4.28
2022-09-17T13:25:22.259Z,4.06
2022-09-17T13:26:53.552Z,3.61
2022-09-17T13:28:25.097Z,4.14
2022-09-17T13:29:56.427Z,4.35
2022-09-17T13:31:27.814Z,4.65
2022-09-17T13:32:59.162Z,4.43
2022-09-17T13:34:30.527Z,4.34
2022-09-17T13:36:01.802Z,5.05
2022-09-17T13:37:33.552Z,4.32
2022-09-17T13:39:04.909Z,5.74
2022-09-17T13:40:41.606Z,4.59
2022-09-17T13:42:13.276Z,4.45
2022-09-17T13:43:44.789Z,4.86
2022-09-17T13:45:16.396Z,4.96
2022-09-17T13:46:48.064Z,4.31
2022-09-17T13:48:19.518Z,4.78
2022-09-17T13:49:51.511Z,4.68
2022-09-17T13:51:22.849Z,6.49
2022-09-17T13:52:54.478Z,4.31
2022-09-17T13:54:25.791Z,4.03
2022-09-17T13:55:57.610Z,4.63
2022-09-17T13:57:29.112Z,4.65
2022-09-17T13:59:00.505Z,4.95
2022-09-17T14:00:31.966Z,4.33
2022-09-17T14:02:04.116Z,4.98
2022-09-17T14:03:35.898Z,5.68
2022-09-17T14:05:07.196Z,4.34
2022-09-17T14:06:38.533Z,5.50
2022-09-17T14:08:10.161Z,5.10
2022-09-17T14:09:42.036Z,5.30
2022-09-17T14:11:13.708Z,5.33
2022-09-17T14:12:45.068Z,5.45
2022-09-17T14:14:16.529Z,4.67
2022-09-17T14:15:48.110Z,4.44
2022-09-17T14:17:19.505Z,4.57
2022-09-17T14:18:50.811Z,4.64
2022-09-17T14:20:22.379Z,5.87
2022-09-17T14:21:53.720Z,4.61
2022-09-17T14:23:25.581Z,4.11
2022-09-17T14:24:57.000Z,5.18
2022-09-17T14:26:28.627Z,5.39
2022-09-17T14:27:59.945Z,7.02
2022-09-17T14:29:31.173Z,5.53
2022-09-17T14:31:02.660Z,3.54
2022-09-17T14:32:34.261Z,5.51
2022-09-17T14:34:05.538Z,5.30
2022-09-17T14:35:36.797Z,5.68
2022-09-17T14:37:08.290Z,5.75
2022-09-17T14:38:39.613Z,3.43
2022-09-17T14:40:11.059Z,4.46
2022-09-17T14:41:42.535Z,4.26
2022-09-17T14:43:13.792Z,6.02
2022-09-17T14:44:45.081Z,5.52
2022-09-17T14:46:16.325Z,5.50
2022-09-17T14:47:47.793Z,6.76
2022-09-17T14:49:19.218Z,4.44
2022-09-17T14:50:50.830Z,3.66
2022-09-17T14:52:22.293Z,6.89
2022-09-17T14:53:53.799Z,7.22
2022-09-17T14:55:25.252Z,6.50
2022-09-17T14:56:56.816Z,5.40
2022-09-17T14:58:28.170Z,4.56
2022-09-17T14:59:59.597Z,5.67
2022-09-17T15:01:31.043Z,3.83
2022-09-17T15:03:02.501Z,4.19
2022-09-17T15:04:33.950Z,3.65
2022-09-17T15:06:05.557Z,5.17
2022-09-17T15:07:37.876Z,5.88
2022-09-17T15:09:11.234Z,3.64
2022-09-17T15:10:42.593Z,4.77
2022-09-17T15:12:13.854Z,4.53
2022-09-17T15:13:45.414Z,4.49
2022-09-17T15:15:16.831Z,5.21
2022-09-17T15:16:48.431Z,5.55
2022-09-17T15:18:19.734Z,5.22
2022-09-17T15:19:51.194Z,5.12
2022-09-17T15:21:24.517Z,3.30
2022-09-17T15:22:57.091Z,4.73
2022-09-17T15:24:28.634Z,6.36
2022-09-17T15:25:59.890Z,6.28
2022-09-17T15:27:31.251Z,4.94
2022-09-17T15:29:02.985Z,6.23
2022-09-17T15:30:34.375Z,5.28
2022-09-17T15:32:05.840Z,5.46
2022-09-17T15:33:37.218Z,6.65
2022-09-17T15:35:08.491Z,5.84
2022-09-17T15:36:39.787Z,6.40
2022-09-17T15:38:22.254Z,5.31
2022-09-17T15:39:54.230Z,6.40
2022-09-17T15:41:25.879Z,4.81
2022-09-17T15:42:57.346Z,5.58
2022-09-17T15:44:30.877Z,5.60
2022-09-17T15:46:02.672Z,7.07
2022-09-17T15:47:33.915Z,5.81
2022-09-17T15:49:05.204Z,5.56
2022-09-17T15:50:36.480Z,5.50
2022-09-17T15:52:07.799Z,6.90
2022-09-17T15:53:39.353Z,8.31
2022-09-17T15:55:10.843Z,8.95
2022-09-17T15:56:42.091Z,8.49
2022-09-17T15:58:13.397Z,8.34
2022-09-17T15:59:44.714Z,7.48
2022-09-17T16:01:16.567Z,6.83
2022-09-17T16:02:48.247Z,7.52
2022-09-17T16:04:19.696Z,7.86
2022-09-17T16:05:55.770Z,9.30
2022-09-17T16:07:28.003Z,6.99
2022-09-17T16:08:59.538Z,6.69
2022-09-17T16:10:30.862Z,7.30
2022-09-17T16:12:02.474Z,7.58
2022-09-17T16:13:34.118Z,7.84
2022-09-17T16:15:05.621Z,6.53
2022-09-17T16:16:37.316Z,4.39
2022-09-17T16:18:09.144Z,7.37
2022-09-17T16:19:40.616Z,4.44
2022-09-17T16:21:12.017Z,4.84
2022-09-17T16:22:43.886Z,6.14
2022-09-17T16:24:15.331Z,6.30
2022-09-17T16:25:46.790Z,6.07
2022-09-17T16:27:18.722Z,5.31
2022-09-17T16:28:50.239Z,5.55
2022-09-17T16:30:21.643Z,6.10
2022-09-17T16:31:53.112Z,4.98
2022-09-17T16:33:24.440Z,5.43
2022-09-17T16:34:56.457Z,4.82
2022-09-17T16:36:27.838Z,6.09
2022-09-17T16:38:00.512Z,4.94
2022-09-17T16:39:32.025Z,4.89
2022-09-17T16:41:03.673Z,4.32
2022-09-17T16:42:35.279Z,5.50
2022-09-17T16:44:06.659Z,8.75
2022-09-17T16:45:38.328Z,6.79
2022-09-17T16:47:09.730Z,7.86
2022-09-17T16:48:41.086Z,5.83
2022-09-17T16:50:12.366Z,6.46
2022-09-17T16:51:43.658Z,8.77
2022-09-17T16:53:15.066Z,7.27
2022-09-17T16:54:46.385Z,6.36
2022-09-17T16:56:17.805Z,5.95
2022-09-17T16:57:49.569Z,6.76
2022-09-17T16:59:21.202Z,6.66
2022-09-17T17:00:52.639Z,7.07
2022-09-17T17:02:23.980Z,5.54
2022-09-17T17:03:55.248Z,6.59
2022-09-17T17:05:26.627Z,6.86
2022-09-17T17:06:57.850Z,6.66
2022-09-17T17:08:29.108Z,7.10
2022-09-17T17:10:00.607Z,8.28
2022-09-17T17:11:31.954Z,8.42
2022-09-17T17:13:03.626Z,7.69
2022-09-17T17:14:34.950Z,6.13
2022-09-17T17:16:06.406Z,7.14
2022-09-17T17:17:37.895Z,7.94
2022-09-17T17:19:09.726Z,8.25
2022-09-17T17:20:42.246Z,6.60
2022-09-17T17:22:13.957Z,8.06
2022-09-17T17:23:45.371Z,7.55
2022-09-17T17:25:16.692Z,9.42
2022-09-17T17:26:48.002Z,9.70
2022-09-17T17:28:19.318Z,6.86
2022-09-17T17:29:50.860Z,7.54
2022-09-17T17:31:22.528Z,7.94
2022-09-17T17:32:54.007Z,6.94
2022-09-17T17:34:25.415Z,6.97
2022-09-17T17:35:56.792Z,7.01
2022-09-17T17:37:28.290Z,7.55
2022-09-17T17:38:59.777Z,10.39
2022-09-17T17:40:31.502Z,8.17
2022-09-17T17:42:03.052Z,9.37
2022-09-17T17:43:34.297Z,7.44
2022-09-17T17:45:05.839Z,9.87
2022-09-17T17:46:37.263Z,9.98
2022-09-17T17:48:08.562Z,7.05
2022-09-17T17:49:39.794Z,7.68
2022-09-17T17:51:14.734Z,9.87
2022-09-17T17:52:46.282Z,9.14
2022-09-17T17:54:17.499Z,10.01
2022-09-17T17:55:48.705Z,8.98
2022-09-17T17:57:20.067Z,7.82
2022-09-17T18:00:40.064Z,10.60
2022-09-17T18:02:11.434Z,8.32
2022-09-17T18:03:42.955Z,10.66
2022-09-17T18:05:14.958Z,11.23
2022-09-17T18:06:46.470Z,9.50
2022-09-17T18:08:17.825Z,7.34
2022-09-17T18:09:49.057Z,10.31
2022-09-17T18:11:20.296Z,8.64
2022-09-17T18:12:51.621Z,7.92
2022-09-17T18:14:22.980Z,10.82
2022-09-17T18:15:54.404Z,8.54
2022-09-17T18:17:25.695Z,7.25
2022-09-17T18:18:57.048Z,8.35
2022-09-17T18:20:28.496Z,9.15
2022-09-17T18:21:59.792Z,10.78
2022-09-17T18:23:31.344Z,10.28
2022-09-17T18:25:02.580Z,9.16
2022-09-17T18:26:34.027Z,8.07
2022-09-17T18:28:05.407Z,11.44
2022-09-17T18:29:36.728Z,9.73
2022-09-17T18:31:08.209Z,11.16
2022-09-17T18:32:39.495Z,11.03
2022-09-17T18:34:10.906Z,12.25
2022-09-17T18:35:42.439Z,11.40
2022-09-17T18:37:13.882Z,7.64
2022-09-17T18:38:45.241Z,9.74
2022-09-17T18:40:16.512Z,10.52
2022-09-17T18:41:47.856Z,12.72
2022-09-17T18:43:19.309Z,12.86
2022-09-17T18:44:50.674Z,16.07
2022-09-17T18:46:22.403Z,14.87
2022-09-17T18:47:53.870Z,14.04
2022-09-17T18:49:25.117Z,13.80
2022-09-17T18:50:56.814Z,12.94
2022-09-17T18:52:28.648Z,14.51
2022-09-17T18:54:01.192Z,14.85
2022-09-17T18:55:32.425Z,13.92
2022-09-17T18:57:04.115Z,11.31
2022-09-17T18:58:35.495Z,13.61
2022-09-17T19:00:06.862Z,11.00
2022-09-17T19:01:38.450Z,11.13
2022-09-17T19:03:09.763Z,11.00
2022-09-17T19:04:41.082Z,12.27
2022-09-17T19:06:12.501Z,11.31
2022-09-17T19:07:43.862Z,14.43
2022-09-17T19:09:15.326Z,13.58
2022-09-17T19:10:46.853Z,11.35
2022-09-17T19:12:18.249Z,11.92
2022-09-17T19:13:49.555Z,12.31
2022-09-17T19:15:20.746Z,12.20
2022-09-17T19:16:52.098Z,13.35
2022-09-17T19:18:23.425Z,12.82
2022-09-17T19:19:54.715Z,12.66
2022-09-17T19:23:32.379Z,12.63
2022-09-17T19:25:03.796Z,14.65
2022-09-17T19:26:35.142Z,11.48
2022-09-17T19:28:06.459Z,13.15
2022-09-17T19:29:37.687Z,10.40
2022-09-17T19:31:19.063Z,12.80
2022-09-17T19:32:50.785Z,13.14
2022-09-17T19:34:22.325Z,14.53
2022-09-17T19:35:53.731Z,18.09
2022-09-17T19:37:26.340Z,16.48
2022-09-17T19:38:57.756Z,14.84
2022-09-17T19:40:29.586Z,13.53
2022-09-17T19:42:01.029Z,12.70
2022-09-17T19:43:37.469Z,11.66
2022-09-17T19:45:08.966Z,13.56
2022-09-17T19:46:41.465Z,13.13
2022-09-17T19:48:12.958Z,11.05
2022-09-17T19:49:44.513Z,13.36
2022-09-17T19:51:16.062Z,12.57
2022-09-17T19:52:47.442Z,13.44
2022-09-17T19:54:18.715Z,13.54
2022-09-17T19:55:49.995Z,13.08
2022-09-17T19:57:21.410Z,15.67
2022-09-17T19:58:53.016Z,12.84
2022-09-17T20:00:24.414Z,13.79
2022-09-17T20:01:55.900Z,13.50
2022-09-17T20:03:27.679Z,11.98
2022-09-17T20:04:59.202Z,12.11
2022-09-17T20:06:30.579Z,14.34